createdAt,value
2018-05-15T00:01:36.873Z,24.67
2018-05-15T00:04:04.890Z,23.97
2018-05-15T00:06:32.621Z,25.60
2018-05-15T00:09:00.414Z,21.47
2018-05-15T00:11:28.491Z,24.27
2018-05-15T00:13:56.163Z,26.60
2018-05-15T00:16:23.887Z,26.50
2018-05-15T00:18:51.756Z,25.40
2018-05-15T00:21:19.755Z,27.30
2018-05-15T00:23:47.749Z,24.10
2018-05-15T00:26:15.532Z,24.50
2018-05-15T00:28:43.260Z,20.60
2018-05-15T00:31:11.265Z,21.57
2018-05-15T00:33:39.300Z,21.47
2018-05-15T00:36:07.329Z,20.63
2018-05-15T00:38:35.236Z,21.00
2018-05-15T00:41:03.084Z,19.33
2018-05-15T00:43:31.075Z,22.33
2018-05-15T00:45:58.807Z,17.63
2018-05-15T00:48:26.600Z,22.30
2018-05-15T00:50:54.293Z,19.13
2018-05-15T00:53:22.268Z,19.23
2018-05-15T00:55:50.199Z,25.47
2018-05-15T00:58:18.126Z,19.43
2018-05-15T01:00:46.142Z,18.20
2018-05-15T01:03:13.896Z,15.40
2018-05-15T01:05:41.609Z,11.73
2018-05-15T01:08:09.281Z,15.97
2018-05-15T01:10:36.991Z,15.63
2018-05-15T01:13:04.597Z,15.20
2018-05-15T01:15:32.386Z,15.30
2018-05-15T01:18:00.076Z,15.43
2018-05-15T01:20:27.832Z,18.67
2018-05-15T01:22:55.566Z,18.33
2018-05-15T01:25:23.307Z,16.27
2018-05-15T01:27:51.021Z,15.03
2018-05-15T01:30:18.685Z,16.13
2018-05-15T01:32:46.453Z,17.80
2018-05-15T01:35:14.420Z,16.00
2018-05-15T01:37:42.012Z,17.20
2018-05-15T01:40:09.639Z,17.90
2018-05-15T01:42:37.302Z,17.63
2018-05-15T01:45:05.064Z,19.20
2018-05-15T01:47:32.686Z,24.73
2018-05-15T01:50:00.348Z,17.70
2018-05-15T01:52:28.061Z,17.07
2018-05-15T01:54:55.726Z,17.37
2018-05-15T01:57:23.373Z,21.50
2018-05-15T01:59:50.992Z,20.77
2018-05-15T02:02:18.590Z,21.50
2018-05-15T02:04:46.179Z,18.80
2018-05-15T02:07:13.760Z,28.63
2018-05-15T02:09:41.388Z,21.77
2018-05-15T02:12:08.973Z,29.80
2018-05-15T02:14:36.555Z,19.07
2018-05-15T02:17:04.174Z,19.00
2018-05-15T02:19:31.763Z,23.20
2018-05-15T02:21:59.351Z,22.47
2018-05-15T02:24:27.007Z,22.30
2018-05-15T02:26:54.595Z,32.90
2018-05-15T02:29:22.185Z,22.40
2018-05-15T02:31:49.850Z,22.67
2018-05-15T02:34:17.441Z,23.17
2018-05-15T02:36:45.021Z,21.87
2018-05-15T02:39:12.660Z,25.07
2018-05-15T02:41:40.256Z,22.87
2018-05-15T02:44:07.871Z,25.20
2018-05-15T02:46:35.490Z,24.33
2018-05-15T02:49:03.095Z,23.00
2018-05-15T02:51:30.925Z,21.97
2018-05-15T02:53:58.552Z,24.40
2018-05-15T02:56:26.243Z,22.83
2018-05-15T02:58:53.840Z,19.70
2018-05-15T03:01:21.457Z,22.87
2018-05-15T03:03:49.039Z,21.37
2018-05-15T03:06:16.747Z,21.70
2018-05-15T03:08:44.571Z,26.43
2018-05-15T03:11:12.172Z,18.83
2018-05-15T03:13:39.880Z,19.00
2018-05-15T03:16:07.504Z,15.87
2018-05-15T03:18:35.153Z,19.27
2018-05-15T03:21:02.874Z,16.63
2018-05-15T03:23:30.511Z,17.73
2018-05-15T03:25:58.116Z,18.73
2018-05-15T03:28:25.857Z,16.03
2018-05-15T03:30:53.511Z,19.33
2018-05-15T03:33:21.120Z,17.60
2018-05-15T03:35:48.836Z,17.53
2018-05-15T03:38:16.500Z,18.60
2018-05-15T03:40:44.157Z,15.93
2018-05-15T03:43:11.820Z,15.07
2018-05-15T03:45:39.432Z,13.47
2018-05-15T03:48:07.045Z,11.63
2018-05-15T03:50:34.621Z,10.30
2018-05-15T03:53:02.216Z,10.67
2018-05-15T03:55:29.840Z,10.00
2018-05-15T03:57:57.429Z,9.30
2018-05-15T04:00:36.886Z,10.30
2018-05-15T04:03:16.199Z,9.70
2018-05-15T04:05:55.682Z,7.97
2018-05-15T04:08:23.471Z,10.03
2018-05-15T04:10:51.103Z,9.30
2018-05-15T04:13:18.732Z,9.90
2018-05-15T04:15:46.468Z,9.33
2018-05-15T04:18:14.075Z,10.90
2018-05-15T04:20:41.697Z,8.60
2018-05-15T04:23:09.285Z,9.50
2018-05-15T04:25:36.873Z,8.60
2018-05-15T04:28:04.576Z,8.00
2018-05-15T04:30:32.231Z,6.67
2018-05-15T04:32:59.798Z,8.70
2018-05-15T04:35:27.562Z,6.97
2018-05-15T04:37:55.149Z,7.23
2018-05-15T04:40:22.729Z,6.73
2018-05-15T04:42:50.542Z,7.80
2018-05-15T04:45:18.122Z,7.83
2018-05-15T04:47:45.708Z,7.20
2018-05-15T04:50:13.387Z,7.80
2018-05-15T04:52:40.961Z,6.80
2018-05-15T04:55:08.541Z,7.87
2018-05-15T04:57:36.328Z,8.90
2018-05-15T05:00:03.914Z,7.17
2018-05-15T05:02:31.511Z,11.07
2018-05-15T05:04:59.131Z,18.63
2018-05-15T05:07:26.760Z,8.20
2018-05-15T05:09:54.401Z,7.13
2018-05-15T05:12:22.019Z,6.50
2018-05-15T05:14:49.597Z,5.23
2018-05-15T05:17:17.183Z,5.53
2018-05-15T05:19:44.792Z,6.00
2018-05-15T05:22:12.367Z,5.90
2018-05-15T05:24:39.954Z,6.73
2018-05-15T05:27:07.586Z,6.30
2018-05-15T05:29:35.237Z,5.27
2018-05-15T05:32:02.816Z,6.23
2018-05-15T05:34:30.436Z,6.00
2018-05-15T05:36:58.019Z,5.73
2018-05-15T05:39:25.602Z,5.90
2018-05-15T05:41:53.215Z,5.50
2018-05-15T05:44:20.799Z,5.50
2018-05-15T05:46:48.373Z,6.17
2018-05-15T05:49:16.058Z,5.50
2018-05-15T05:51:43.849Z,5.87
2018-05-15T05:54:11.436Z,6.20
2018-05-15T05:56:39.134Z,5.67
2018-05-15T05:59:06.723Z,5.13
2018-05-15T06:01:34.286Z,5.20
2018-05-15T06:04:01.957Z,5.03
2018-05-15T06:06:29.810Z,6.73
2018-05-15T06:08:57.380Z,5.97
2018-05-15T06:11:24.994Z,5.17
2018-05-15T06:13:52.811Z,5.17
2018-05-15T06:16:20.486Z,4.43
2018-05-15T06:18:48.097Z,5.00
2018-05-15T06:21:15.672Z,4.57
2018-05-15T06:23:43.460Z,4.43
2018-05-15T06:26:11.080Z,4.70
2018-05-15T06:28:38.652Z,4.03
2018-05-15T06:31:06.227Z,4.40
2018-05-15T06:33:34.039Z,4.37
2018-05-15T06:36:01.771Z,3.60
2018-05-15T06:38:29.490Z,4.43
2018-05-15T06:40:57.518Z,7.20
2018-05-15T06:43:25.167Z,5.77
2018-05-15T06:45:52.930Z,4.43
2018-05-15T06:48:20.547Z,4.93
2018-05-15T06:50:48.475Z,4.90
2018-05-15T06:53:16.126Z,4.90
2018-05-15T06:55:43.797Z,4.77
2018-05-15T06:58:11.456Z,4.67
2018-05-15T07:00:39.102Z,4.10
2018-05-15T07:03:06.727Z,4.30
2018-05-15T07:05:34.311Z,3.70
2018-05-15T07:08:02.288Z,4.32
2018-05-15T07:10:29.977Z,4.50
2018-05-15T07:12:57.745Z,4.23
2018-05-15T07:15:25.341Z,4.23
2018-05-15T07:17:53.011Z,3.58
2018-05-15T07:20:20.588Z,3.37
2018-05-15T07:22:48.467Z,3.50
2018-05-15T07:25:16.077Z,4.90
2018-05-15T07:27:43.656Z,4.60
2018-05-15T07:30:11.286Z,3.30
2018-05-15T07:32:39.027Z,3.73
2018-05-15T07:35:06.691Z,4.00
2018-05-15T07:37:34.363Z,5.27
2018-05-15T07:40:02.064Z,4.30
2018-05-15T07:42:29.643Z,6.13
2018-05-15T07:44:57.339Z,4.70
2018-05-15T07:47:24.951Z,5.80
2018-05-15T07:49:52.674Z,5.47
2018-05-15T07:52:20.299Z,5.63
2018-05-15T07:54:47.915Z,5.30
2018-05-15T07:57:15.496Z,6.20
2018-05-15T07:59:43.075Z,5.63
2018-05-15T08:02:10.797Z,4.93
2018-05-15T08:04:38.443Z,6.10
2018-05-15T08:07:06.025Z,5.03
2018-05-15T08:09:33.769Z,4.60
2018-05-15T08:12:01.345Z,4.50
2018-05-15T08:14:29.094Z,5.90
2018-05-15T08:16:56.751Z,5.23
2018-05-15T08:19:24.340Z,4.50
2018-05-15T08:21:52.190Z,5.13
2018-05-15T08:24:19.804Z,4.97
2018-05-15T08:26:47.605Z,5.47
2018-05-15T08:29:15.189Z,4.13
2018-05-15T08:31:43.988Z,4.40
2018-05-15T08:34:11.619Z,3.80
2018-05-15T08:36:39.216Z,4.37
2018-05-15T08:39:06.943Z,4.13
2018-05-15T08:41:34.527Z,3.83
2018-05-15T08:44:02.103Z,3.20
2018-05-15T08:46:29.809Z,3.47
2018-05-15T08:48:57.590Z,3.80
2018-05-15T08:51:25.329Z,4.33
2018-05-15T08:53:53.114Z,4.43
2018-05-15T08:56:20.695Z,4.13
2018-05-15T08:58:48.268Z,4.77
2018-05-15T09:01:16.118Z,4.13
2018-05-15T09:03:43.702Z,4.13
2018-05-15T09:06:11.279Z,4.50
2018-05-15T09:08:39.041Z,4.00
2018-05-15T09:11:06.739Z,3.90
2018-05-15T09:13:34.475Z,4.40
2018-05-15T09:16:02.090Z,5.43
2018-05-15T09:18:29.746Z,4.00
2018-05-15T09:20:57.326Z,4.80
2018-05-15T09:23:25.051Z,6.57
2018-05-15T09:25:52.715Z,4.20
2018-05-15T09:28:20.394Z,5.00
2018-05-15T09:30:48.370Z,4.97
2018-05-15T09:33:16.111Z,4.93
2018-05-15T09:35:43.793Z,5.10
2018-05-15T09:38:12.248Z,5.67
2018-05-15T09:40:39.838Z,6.20
2018-05-15T09:43:07.598Z,6.30
2018-05-15T09:45:35.323Z,6.33
2018-05-15T09:48:03.055Z,5.53
2018-05-15T09:50:30.860Z,6.40
2018-05-15T09:52:58.479Z,8.83
2018-05-15T09:55:26.060Z,7.67
2018-05-15T09:57:53.778Z,7.37
2018-05-15T10:00:26.931Z,7.10
2018-05-15T10:02:54.619Z,7.70
2018-05-15T10:05:22.209Z,8.73
2018-05-15T10:07:50.052Z,8.30
2018-05-15T10:10:17.948Z,7.10
2018-05-15T10:12:45.531Z,7.60
2018-05-15T10:15:13.331Z,5.53
2018-05-15T10:17:41.218Z,7.10
2018-05-15T10:20:08.790Z,7.33
2018-05-15T10:22:36.544Z,5.30
2018-05-15T10:25:04.206Z,7.20
2018-05-15T10:27:31.793Z,7.30
2018-05-15T10:29:59.802Z,6.70
2018-05-15T10:32:27.398Z,6.93
2018-05-15T10:34:54.983Z,6.03
2018-05-15T10:37:22.668Z,6.50
2018-05-15T10:39:50.268Z,6.00
2018-05-15T10:42:18.047Z,5.70
2018-05-15T10:44:45.708Z,6.87
2018-05-15T10:47:13.409Z,7.83
2018-05-15T10:49:40.986Z,6.87
2018-05-15T10:52:08.612Z,6.83
2018-05-15T10:54:36.185Z,7.23
2018-05-15T10:57:03.755Z,5.23
2018-05-15T10:59:31.434Z,5.80
2018-05-15T11:01:59.135Z,6.57
2018-05-15T11:04:26.717Z,5.33
2018-05-15T11:06:54.669Z,5.60
2018-05-15T11:09:22.333Z,6.17
2018-05-15T11:11:49.938Z,5.27
2018-05-15T11:14:17.651Z,5.77
2018-05-15T11:16:45.248Z,5.97
2018-05-15T11:19:24.759Z,5.23
2018-05-15T11:22:04.023Z,5.83
2018-05-15T11:24:43.227Z,5.57
2018-05-15T11:27:10.986Z,5.80
2018-05-15T11:29:38.824Z,5.40
2018-05-15T11:32:06.518Z,4.67
2018-05-15T11:34:34.088Z,5.30
2018-05-15T11:37:01.843Z,4.67
2018-05-15T11:39:29.505Z,5.20
2018-05-15T11:41:57.171Z,4.80
2018-05-15T11:44:24.730Z,6.20
2018-05-15T11:46:52.363Z,5.40
2018-05-15T11:49:20.839Z,5.87
2018-05-15T11:51:48.489Z,4.57
2018-05-15T11:54:15.476Z,5.87
2018-05-15T11:56:43.055Z,4.67
2018-05-15T11:59:10.633Z,4.10
2018-05-15T12:01:38.260Z,4.03
2018-05-15T12:04:05.914Z,8.23
2018-05-15T12:06:33.639Z,5.17
2018-05-15T12:09:01.494Z,5.43
2018-05-15T12:11:29.163Z,6.37
2018-05-15T12:13:56.758Z,4.50
2018-05-15T12:16:24.373Z,5.07
2018-05-15T12:18:52.207Z,5.27
2018-05-15T12:21:19.967Z,6.10
2018-05-15T12:23:47.571Z,4.97
2018-05-15T12:26:15.151Z,5.20
2018-05-15T12:28:42.941Z,5.10
2018-05-15T12:31:10.558Z,6.17
2018-05-15T12:33:38.260Z,6.80
2018-05-15T12:36:05.869Z,5.70
2018-05-15T12:38:33.592Z,6.63
2018-05-15T12:41:01.170Z,5.47
2018-05-15T12:43:28.922Z,6.10
2018-05-15T12:45:56.526Z,5.73
2018-05-15T12:48:24.381Z,6.70
2018-05-15T12:50:51.920Z,5.20
2018-05-15T12:53:19.538Z,6.63
2018-05-15T12:55:47.183Z,5.50
2018-05-15T12:58:14.762Z,5.40
2018-05-15T13:00:42.404Z,5.50
2018-05-15T13:03:10.001Z,5.70
2018-05-15T13:05:37.576Z,4.93
2018-05-15T13:08:05.192Z,7.27
2018-05-15T13:10:32.779Z,6.00
2018-05-15T13:13:00.470Z,5.03
2018-05-15T13:15:28.087Z,5.10
2018-05-15T13:17:55.788Z,5.20
2018-05-15T13:20:23.453Z,4.60
2018-05-15T13:22:51.042Z,6.20
2018-05-15T13:25:18.944Z,5.60
2018-05-15T13:27:46.523Z,5.93
2018-05-15T13:30:14.124Z,5.57
2018-05-15T13:32:41.695Z,4.50
2018-05-15T13:35:09.553Z,4.73
2018-05-15T13:37:37.400Z,4.70
2018-05-15T13:40:05.221Z,5.93
2018-05-15T13:42:33.232Z,4.60
2018-05-15T13:45:00.888Z,5.50
2018-05-15T13:47:28.559Z,4.50
2018-05-15T13:49:56.154Z,4.40
2018-05-15T13:52:23.758Z,5.50
2018-05-15T13:54:51.529Z,4.40
2018-05-15T13:57:19.104Z,5.80
2018-05-15T13:59:46.703Z,5.50
2018-05-15T14:02:14.300Z,4.70
2018-05-15T14:04:41.890Z,5.07
2018-05-15T14:07:09.502Z,4.77
2018-05-15T14:09:37.071Z,3.67
2018-05-15T14:12:04.763Z,4.77
2018-05-15T14:14:32.429Z,4.73
2018-05-15T14:17:00.051Z,4.57
2018-05-15T14:19:27.626Z,4.87
2018-05-15T14:21:55.254Z,5.10
2018-05-15T14:24:23.065Z,4.77
2018-05-15T14:26:50.642Z,4.77
2018-05-15T14:29:18.246Z,3.80
2018-05-15T14:31:45.836Z,4.53
2018-05-15T14:34:13.441Z,5.50
2018-05-15T14:36:41.176Z,5.63
2018-05-15T14:39:08.743Z,4.83
2018-05-15T14:41:48.021Z,4.80
2018-05-15T14:44:15.624Z,5.00
2018-05-15T14:46:43.216Z,5.47
2018-05-15T14:49:10.957Z,4.70
2018-05-15T14:51:38.569Z,4.57
2018-05-15T14:54:08.111Z,4.37
2018-05-15T14:56:35.948Z,4.97
2018-05-15T14:59:03.771Z,5.03
2018-05-15T15:01:31.504Z,4.27
2018-05-15T15:03:59.116Z,5.03
2018-05-15T15:06:26.691Z,6.40
2018-05-15T15:08:54.295Z,4.97
2018-05-15T15:11:21.971Z,4.40
2018-05-15T15:13:49.618Z,3.63
2018-05-15T15:16:17.183Z,4.67
2018-05-15T15:18:44.941Z,5.07
2018-05-15T15:21:12.523Z,4.77
2018-05-15T15:23:40.673Z,4.50
2018-05-15T15:26:08.354Z,4.70
2018-05-15T15:28:35.921Z,5.07
2018-05-15T15:31:03.655Z,4.40
2018-05-15T15:33:31.324Z,4.30
2018-05-15T15:35:59.131Z,3.80
2018-05-15T15:38:26.865Z,4.60
2018-05-15T15:40:54.507Z,3.87
2018-05-15T15:43:22.157Z,5.20
2018-05-15T15:45:49.741Z,4.53
2018-05-15T15:48:17.464Z,3.87
2018-05-15T15:50:45.136Z,4.20
2018-05-15T15:53:12.839Z,5.40
2018-05-15T15:55:40.451Z,4.87
2018-05-15T15:58:08.199Z,5.87
2018-05-15T16:00:35.816Z,5.40
2018-05-15T16:03:03.441Z,5.43
2018-05-15T16:05:31.161Z,4.63
2018-05-15T16:07:58.736Z,4.90
2018-05-15T16:10:26.475Z,5.00
2018-05-15T16:12:54.049Z,5.00
2018-05-15T16:15:21.856Z,4.00
2018-05-15T16:17:49.554Z,4.47
2018-05-15T16:20:17.331Z,3.97
2018-05-15T16:22:44.915Z,5.37
2018-05-15T16:25:12.528Z,5.13
2018-05-15T16:27:40.324Z,5.10
2018-05-15T16:30:07.892Z,5.37
2018-05-15T16:32:35.512Z,5.63
2018-05-15T16:35:03.100Z,4.80
2018-05-15T16:37:32.527Z,5.80
2018-05-15T16:40:01.614Z,4.80
2018-05-15T16:42:29.283Z,4.73
2018-05-15T16:44:56.861Z,6.70
2018-05-15T16:47:24.571Z,5.53
2018-05-15T16:49:52.352Z,5.73
2018-05-15T16:52:21.367Z,7.03
2018-05-15T16:54:50.561Z,6.10
2018-05-15T16:57:20.391Z,7.50
2018-05-15T16:59:49.339Z,5.80
2018-05-15T17:02:18.816Z,5.37
2018-05-15T17:04:48.171Z,7.00
2018-05-15T17:07:17.820Z,4.90
2018-05-15T17:09:47.433Z,6.30
2018-05-15T17:12:17.098Z,5.40
2018-05-15T17:14:47.203Z,6.33
2018-05-15T17:17:17.121Z,5.30
2018-05-15T17:19:47.151Z,6.00
2018-05-15T17:22:17.463Z,5.80
2018-05-15T17:24:48.788Z,7.63
2018-05-15T17:27:18.691Z,6.30
2018-05-15T17:29:48.659Z,6.47
2018-05-15T17:32:16.356Z,6.80
2018-05-15T17:34:43.996Z,7.03
2018-05-15T17:37:11.564Z,6.10
2018-05-15T17:39:39.363Z,4.87
2018-05-15T17:42:06.973Z,5.77
2018-05-15T17:44:34.698Z,5.60
2018-05-15T17:47:02.427Z,6.90
2018-05-15T17:49:30.095Z,5.37
2018-05-15T17:51:57.878Z,5.30
2018-05-15T17:54:25.443Z,5.83
2018-05-15T17:56:53.216Z,5.83
2018-05-15T17:59:20.840Z,4.90
2018-05-15T18:01:48.541Z,5.37
2018-05-15T18:04:16.136Z,5.37
2018-05-15T18:06:43.705Z,5.10
2018-05-15T18:09:11.273Z,4.33
2018-05-15T18:11:38.873Z,5.00
2018-05-15T18:14:06.444Z,6.50
2018-05-15T18:16:34.004Z,7.93
2018-05-15T18:19:01.778Z,6.67
2018-05-15T18:21:29.392Z,4.47
2018-05-15T18:23:56.924Z,5.30
2018-05-15T18:26:24.532Z,4.80
2018-05-15T18:28:52.095Z,4.63
2018-05-15T18:31:19.661Z,4.40
2018-05-15T18:33:47.257Z,4.57
2018-05-15T18:36:15.719Z,4.10
2018-05-15T18:38:43.281Z,5.47
2018-05-15T18:41:10.890Z,4.13
2018-05-15T18:43:38.450Z,5.97
2018-05-15T18:46:06.665Z,4.70
2018-05-15T18:48:34.336Z,5.60
2018-05-15T18:51:02.001Z,4.33
2018-05-15T18:53:29.669Z,5.87
2018-05-15T18:55:57.303Z,4.50
2018-05-15T18:58:24.865Z,6.50
2018-05-15T19:00:52.456Z,5.10
2018-05-15T19:03:20.066Z,5.10
2018-05-15T19:05:47.636Z,5.30
2018-05-15T19:08:15.226Z,5.67
2018-05-15T19:10:42.840Z,4.40
2018-05-15T19:13:10.494Z,6.00
2018-05-15T19:15:38.068Z,6.20
2018-05-15T19:18:05.684Z,5.50
2018-05-15T19:20:33.255Z,5.60
2018-05-15T19:23:00.885Z,5.07
2018-05-15T19:25:28.502Z,4.70
2018-05-15T19:27:56.088Z,7.20
2018-05-15T19:30:23.659Z,6.50
2018-05-15T19:32:56.922Z,5.33
2018-05-15T19:35:45.320Z,5.43
2018-05-15T19:38:12.932Z,5.47
2018-05-15T19:40:51.374Z,6.30
2018-05-15T19:43:18.989Z,6.60
2018-05-15T19:45:46.541Z,5.47
2018-05-15T19:48:14.383Z,5.80
2018-05-15T19:50:41.992Z,5.20
2018-05-15T19:53:09.573Z,6.97
2018-05-15T19:55:37.180Z,8.37
2018-05-15T19:58:04.838Z,7.07
2018-05-15T20:00:32.409Z,5.70
2018-05-15T20:02:59.978Z,6.00
2018-05-15T20:05:27.813Z,6.47
2018-05-15T20:07:55.477Z,5.67
2018-05-15T20:10:23.074Z,6.00
2018-05-15T20:12:50.682Z,9.60
2018-05-15T20:15:18.251Z,4.50
2018-05-15T20:17:45.816Z,5.20
2018-05-15T20:20:13.569Z,5.03
2018-05-15T20:22:41.198Z,6.10
2018-05-15T20:25:08.906Z,6.10
2018-05-15T20:27:36.516Z,5.43
2018-05-15T20:30:04.207Z,5.80
2018-05-15T20:32:32.045Z,6.87
2018-05-15T20:34:59.779Z,5.83
2018-05-15T20:37:28.726Z,5.57
2018-05-15T20:39:56.321Z,6.40
2018-05-15T20:42:23.929Z,6.97
2018-05-15T20:44:51.553Z,6.30
2018-05-15T20:47:19.133Z,5.80
2018-05-15T20:49:46.779Z,5.50
2018-05-15T20:52:14.428Z,6.30
2018-05-15T20:54:41.976Z,5.87
2018-05-15T20:57:09.738Z,5.03
2018-05-15T20:59:37.318Z,5.60
2018-05-15T21:02:05.257Z,7.90
2018-05-15T21:04:32.875Z,5.60
2018-05-15T21:07:00.446Z,5.40
2018-05-15T21:09:28.028Z,5.47
2018-05-15T21:11:55.652Z,5.13
2018-05-15T21:14:23.231Z,5.93
2018-05-15T21:16:50.942Z,6.30
2018-05-15T21:19:18.503Z,8.13
2018-05-15T21:21:46.079Z,6.97
2018-05-15T21:24:13.799Z,6.67
2018-05-15T21:26:41.392Z,5.63
2018-05-15T21:29:08.947Z,8.13
2018-05-15T21:31:36.566Z,6.07
2018-05-15T21:34:04.173Z,6.00
2018-05-15T21:36:31.753Z,7.10
2018-05-15T21:38:59.376Z,5.27
2018-05-15T21:41:26.956Z,6.97
2018-05-15T21:43:54.554Z,6.40
2018-05-15T21:46:22.240Z,7.40
2018-05-15T21:48:49.835Z,5.67
2018-05-15T21:51:17.452Z,6.80
2018-05-15T21:53:45.078Z,6.73
2018-05-15T21:56:12.650Z,5.57
2018-05-15T21:58:40.223Z,6.37
2018-05-15T22:01:07.837Z,5.30
2018-05-15T22:03:35.421Z,6.20
2018-05-15T22:06:03.061Z,6.40
2018-05-15T22:08:30.667Z,7.63
2018-05-15T22:10:59.237Z,6.07
2018-05-15T22:13:38.701Z,6.17
2018-05-15T22:16:17.944Z,6.60
2018-05-15T22:18:57.259Z,6.87
2018-05-15T22:21:36.601Z,7.10
2018-05-15T22:24:03.638Z,6.57
2018-05-15T22:26:31.223Z,5.47
2018-05-15T22:28:58.843Z,6.23
2018-05-15T22:31:26.430Z,7.80
2018-05-15T22:33:54.024Z,6.27
2018-05-15T22:36:21.799Z,5.83
2018-05-15T22:38:49.377Z,5.73
2018-05-15T22:41:16.963Z,5.83
2018-05-15T22:43:44.591Z,6.30
2018-05-15T22:46:12.188Z,5.80
2018-05-15T22:48:39.777Z,6.53
2018-05-15T22:51:07.414Z,5.87
2018-05-15T22:53:35.009Z,7.17
2018-05-15T22:56:02.600Z,5.13
2018-05-15T22:58:30.217Z,5.87
2018-05-15T23:00:57.834Z,6.73
2018-05-15T23:03:25.417Z,5.73
2018-05-15T23:05:53.055Z,5.80
2018-05-15T23:08:20.695Z,5.07
2018-05-15T23:10:48.274Z,6.07
2018-05-15T23:13:15.896Z,6.10
2018-05-15T23:15:43.560Z,5.53
2018-05-15T23:18:11.204Z,6.50
2018-05-15T23:20:38.832Z,6.07
2018-05-15T23:23:06.423Z,6.03
2018-05-15T23:25:34.001Z,6.10
2018-05-15T23:28:01.620Z,5.83
2018-05-15T23:30:29.239Z,5.30
2018-05-15T23:32:56.825Z,6.47
2018-05-15T23:35:24.440Z,5.77
2018-05-15T23:37:52.010Z,5.47
2018-05-15T23:40:19.692Z,5.23
2018-05-15T23:42:47.303Z,5.40
2018-05-15T23:45:14.886Z,5.67
2018-05-15T23:47:42.515Z,5.00
2018-05-15T23:50:10.131Z,6.20
2018-05-15T23:52:37.701Z,5.73
2018-05-15T23:55:05.298Z,6.20
2018-05-15T23:57:32.928Z,8.10
